Terminal Aerodrome Forecast
Issued by NWS Blacksburg, VA

Home | Current Version | Previous Version | Text Only | Print | Product List | Glossary On
Versions: 1 2 3 4 5 6 7 8 9 10 11 12
000
FTUS41 KRNK 251130
TAFROA
TAF
KROA 251130Z 2512/2612 00000KT P6SM SCT040 BKN250
     FM251400 21006KT P6SM BKN040 BKN200
     FM251800 24007KT P6SM BKN050 BKN250
     FM260400 29004KT P6SM SCT045 SCT250=

USA.gov is the U.S. government's official web portal to all federal, state and local government web resources and services.